Orages Valable du: 26-09-2018 12:00 Au: 21:59 Avertissement pour: Orages Niveau: Jaune info button
 

Nearby METAR Reports

 

LEZL - Sevilla, Spain
Distance from station: ENE 8km
Mise à jour: 26/09/2018 16:30
clair
clair
 Wind from SE
Vent: SE 11 km/h
Température: 33°C
Point de rosée: 15°C
Humidité: 34%
Baromètre: 1020 hPa
Résumé: clair
Visibility: greater than 10 km
2018/09/26 14:30 LEZL 261430Z 14006KT 100V200 CAVOK 33/15 Q1020 NOSIG
LEMO - Morón, Spain
Distance from station: SE 43km
Mise à jour: 26/09/2018 16:00
clair
clair
 Wind from ESE
Vent: ESE 13 km/h
Température: 33°C
Point de rosée: 14°C
Humidité: 32%
Baromètre: 1021 hPa
Résumé: clair
Visibility: greater than 10 km
2018/09/26 14:00 LEMO 261400Z 12007KT 060V210 CAVOK 33/14 Q1021 NOSIG
LEJR - Jeréz, Spain
Distance from station: S 71km
Mise à jour: 26/09/2018 16:30
Few Clouds
Few Clouds
 Wind from ESE
Vent: ESE 28 km/h
Température: 33°C
Point de rosée: 15°C
Humidité: 34%
Baromètre: 1020 hPa
Clouds: Few Clouds
Visibility: 10 km
Cloud details: Few Clouds 914 m
2018/09/26 14:30 LEJR 261430Z 11015KT 070V150 9999 FEW030 33/15 Q1020
 
LERT - Rota, Spain
Distance from station: SSO 89km
Mise à jour: 26/09/2018 16:00
clair
clair
 Wind from ESE
Vent: ESE 46 km/h
Température: 31°C
Index de chaleur: 32°C
Point de rosée: 17°C
Humidité: 43%
Baromètre: 1020 hPa
Résumé: clair
Visibility: greater than 10 km
2018/09/26 14:00 LERT 261400Z 11025KT 080V140 CAVOK 31/17 Q1020 NOSIG
LEMG - Málaga, Spain
Distance from station: ESE 157km
Mise à jour: 26/09/2018 16:30
partiellement nuageux
partiellement nuageux
 Wind from ESE
Vent: ESE 17 km/h
Température: 27°C
Index de chaleur: 29°C
Point de rosée: 21°C
Humidité: 70%
Baromètre: 1024 hPa
Clouds: partiellement nuageux
Visibility: 10 km
Cloud details: partiellement nuageux 610 m
2018/09/26 14:30 LEMG 261430Z 12009KT 080V150 9999 SCT020 27/21 Q1024 NOSIG
LEBA - Córdoba, Spain
Distance from station: ENE 115km
Mise à jour: 26/09/2018 16:30
Few Clouds
Few Clouds
 Wind from NNE
Vent: NNE 4 km/h
Température: 33°C
Point de rosée: 17°C
Humidité: 38%
Baromètre: 1021 hPa
Clouds: Few Clouds
Visibility: 10 km
Cloud details: Few Clouds 1372 m
2018/09/26 14:30 LEBA 261430Z 02002KT 9999 FEW045 33/17 Q1021
 
LEGR - Granada, Spain
Distance from station: E 198km
Mise à jour: 26/09/2018 16:45
Thunderstorm, nuageux
Thunderstorm, nuageux
 Wind from SSO
Vent: SSO 22 km/h
Température: 22°C
Point de rosée: 18°C
Humidité: 78%
Baromètre: 1024 hPa
Résumé: Thunderstorm
Clouds: nuageux
Visibility: 10 km
Cloud details: Few Clouds 914 m
nuageux 1524 m
2018/09/26 14:45 LEGR 261445Z 21012KT 9999 TS FEW030CB BKN050 22/18 Q1024 RERA
LEAM - Almería, Spain
Distance from station: E 326km
Mise à jour: 26/09/2018 16:30
Few Clouds
Few Clouds
 Wind from ENE
Vent: ENE 39 km/h
Température: 30°C
Index de chaleur: 30°C
Point de rosée: 16°C
Humidité: 43%
Baromètre: 1023 hPa
Clouds: Few Clouds
Visibility: 10 km
Cloud details: Few Clouds 610 m
Few Clouds 1219 m
2018/09/26 14:30 LEAM 261430Z 07021KT 040V100 9999 FEW020 FEW040TCU 30/16 Q1023
LEMD - Madrid/Barajas, Spain
Distance from station: NNE 402km
Mise à jour: 26/09/2018 16:30
partiellement nuageux
partiellement nuageux
 Wind from S
Vent: S 9 km/h
Température: 27°C
Index de chaleur: 27°C
Point de rosée: 15°C
Humidité: 48%
Baromètre: 1027 hPa
Clouds: partiellement nuageux
Visibility: 10 km
Cloud details: partiellement nuageux 1524 m
2018/09/26 14:30 LEMD 261430Z 17005KT 100V260 9999 SCT050 27/15 Q1027 NOSIG
 
LEVD - Valladolid, Spain
Distance from station: N 492km
Mise à jour: 26/09/2018 16:52
Thunderstorm, pluie légère, Showers, partiellement nuageux
Thunderstorm, pluie légère, Showers, partiellement nuageux
 Wind from SSO
Vent: SSO 15 km/h
Température: 26°C
Point de rosée: 12°C
Humidité: 42%
Baromètre: 1026 hPa
Résumé: Thunderstorm, pluie légère, Showers
Clouds: partiellement nuageux
Visibility: 10 km
Cloud details: partiellement nuageux 1981 m
2018/09/26 14:52 LEVD 261452Z 20008KT 9999 TS -SHRA SCT065CB 26/12 Q1026
LEBL - Barcelona, Spain
Distance from station: NE 816km
Mise à jour: 26/09/2018 16:30
Few Clouds
Few Clouds
 Wind from E
Vent: E 26 km/h
Température: 24°C
Point de rosée: 15°C
Humidité: 57%
Baromètre: 1031 hPa
Clouds: Few Clouds
Visibility: 10 km
Cloud details: Few Clouds 914 m
2018/09/26 14:30 LEBL 261430Z 08014KT 060V120 9999 FEW030 24/15 Q1031 NOSIG
LEVC - Valencia, Spain
Distance from station: ENE 535km
Mise à jour: 26/09/2018 16:30
partiellement nuageux
partiellement nuageux
 Wind from ENE
Vent: ENE 30 km/h
Température: 25°C
Point de rosée: 17°C
Humidité: 61%
Baromètre: 1029 hPa
Clouds: partiellement nuageux
Visibility: 10 km
Cloud details: partiellement nuageux 914 m
2018/09/26 14:30 LEVC 261430Z 07016KT 040V100 9999 SCT030 25/17 Q1029 NOSIG